Time;durP1;ratioP1;P1;durP2;ratioP2;P2;SDS_P1;SDS_P2;PMS_P1;PMS_P2;Temp;Humidity;BMP_temperature;BMP_pressure;BME280_temperature;BME280_humidity;BME280_pressure;Samples;Min_cycle;Max_cycle;Signal;HPM_P1;HPM_P2
2023/07/21 00:01:07;;;;;;;7.10;2.83;;;;;;;16.48;92.12;100327.06;5030741;57;1138810;-70
2023/07/21 00:06:19;;;;;;;4.63;1.90;;;;;;;16.40;91.63;100324.34;5005912;57;1138996;-75
2023/07/21 00:11:22;;;;;;;1.93;1.30;;;;;;;16.37;91.84;100321.50;4985176;57;1138727;-70
2023/07/21 00:16:29;;;;;;;5.03;1.70;;;;;;;16.34;91.17;100327.19;5017835;57;1138841;-71
2023/07/21 00:21:35;;;;;;;1.57;1.50;;;;;;;16.21;91.07;100319.26;4993524;57;1139133;-72
2023/07/21 00:26:41;;;;;;;3.33;1.30;;;;;;;16.18;91.94;100313.77;4971753;56;1139004;-73
2023/07/21 00:31:49;;;;;;;2.98;1.65;;;;;;;16.20;92.37;100314.41;5032824;57;1139123;-68
2023/07/21 00:36:58;;;;;;;2.25;1.50;;;;;;;16.22;92.19;100316.43;5041244;57;1138897;-72
2023/07/21 00:42:04;;;;;;;4.73;1.67;;;;;;;16.19;92.12;100319.45;5039756;57;1138751;-73
2023/07/21 00:47:10;;;;;;;5.62;1.80;;;;;;;16.09;90.83;100307.55;5030422;57;1138868;-75
2023/07/21 00:52:18;;;;;;;4.70;1.60;;;;;;;15.90;90.98;100313.10;5011201;57;1138808;-71
2023/07/21 00:57:24;;;;;;;1.87;1.63;;;;;;;15.90;91.99;100312.27;5010753;57;1138971;-71
2023/07/21 01:02:29;;;;;;;5.33;1.90;;;;;;;15.92;92.16;100312.45;4899970;58;1138778;-69
2023/07/21 01:07:38;;;;;;;4.17;2.67;;;;;;;15.87;91.52;100309.44;4988012;57;1143026;-73
2023/07/21 01:12:44;;;;;;;2.98;2.30;;;;;;;15.82;91.93;100308.58;4946832;57;1139027;-71
2023/07/21 01:17:52;;;;;;;6.47;2.20;;;;;;;15.81;91.94;100303.39;4980196;57;1138801;-68
2023/07/21 01:23:02;;;;;;;4.50;2.03;;;;;;;15.73;91.66;100314.86;4998321;57;1138946;-69
2023/07/21 01:28:12;;;;;;;1.50;1.40;;;;;;;15.66;91.09;100316.47;5025025;56;1138876;-71
2023/07/21 01:33:20;;;;;;;2.30;1.30;;;;;;;15.39;90.66;100313.42;5060819;57;1138760;-69
2023/07/21 01:38:27;;;;;;;2.40;1.77;;;;;;;15.17;91.29;100313.05;5037605;57;1138828;-74
2023/07/21 01:43:33;;;;;;;6.17;1.83;;;;;;;14.99;92.21;100320.55;5022108;57;1138794;-72
2023/07/21 01:48:38;;;;;;;3.45;1.52;;;;;;;14.93;92.65;100325.17;5042192;57;1138750;-70
2023/07/21 01:53:48;;;;;;;1.90;1.80;;;;;;;14.80;92.71;100322.54;5061703;57;1138946;-72
2023/07/21 01:58:56;;;;;;;1.87;1.70;;;;;;;14.70;93.42;100318.59;5050121;57;1139027;-73
2023/07/21 02:04:02;;;;;;;2.53;1.70;;;;;;;14.80;95.08;100315.39;5051018;57;1138601;-73
2023/07/21 02:09:07;;;;;;;2.70;2.20;;;;;;;14.94;95.95;100321.52;5071513;57;1138770;-71
2023/07/21 02:14:13;;;;;;;1.70;1.60;;;;;;;15.02;95.75;100316.75;5051418;57;1138645;-72
2023/07/21 02:19:19;;;;;;;2.30;1.50;;;;;;;14.90;94.08;100320.14;5051386;57;1138827;-70
2023/07/21 02:24:25;;;;;;;3.60;1.73;;;;;;;14.72;93.82;100325.94;5014311;56;1138691;-75
2023/07/21 02:29:30;;;;;;;2.10;1.33;;;;;;;14.68;94.75;100321.89;5020066;56;1139144;-72
2023/07/21 02:34:39;;;;;;;1.97;1.63;;;;;;;14.65;94.65;100324.39;4985905;58;1138899;-73
2023/07/21 02:39:44;;;;;;;2.33;1.57;;;;;;;14.74;95.09;100328.80;5019665;57;1138768;-72
2023/07/21 02:44:50;;;;;;;2.77;1.60;;;;;;;14.65;94.04;100332.37;5019362;57;1138707;-72
2023/07/21 02:49:56;;;;;;;3.73;1.73;;;;;;;14.57;94.12;100330.94;4968673;58;1138865;-69
2023/07/21 02:55:02;;;;;;;5.23;2.17;;;;;;;14.50;94.18;100334.36;5075894;56;1138666;-71
2023/07/21 03:00:12;;;;;;;4.50;1.70;;;;;;;14.53;95.45;100333.55;5003674;57;1139014;-71
2023/07/21 03:05:17;;;;;;;7.67;1.83;;;;;;;14.62;95.59;100335.33;5003777;57;1139097;-72
2023/07/21 03:10:24;;;;;;;4.80;2.30;;;;;;;14.70;96.19;100327.91;4979744;57;1138661;-70
2023/07/21 03:15:29;;;;;;;3.03;1.63;;;;;;;14.70;95.82;100324.75;4998341;57;1138931;-70
2023/07/21 03:20:37;;;;;;;4.20;1.90;;;;;;;14.77;96.81;100329.84;5066584;57;1138746;-69
2023/07/21 03:25:49;;;;;;;4.53;2.22;;;;;;;14.86;97.44;100328.58;4987255;56;1138929;-71
2023/07/21 03:31:04;;;;;;;1.93;1.63;;;;;;;14.92;97.37;100336.81;4988015;56;1139062;-73
2023/07/21 03:36:11;;;;;;;3.17;2.20;;;;;;;14.81;96.54;100329.55;4882133;58;1138996;-75
2023/07/21 03:41:17;;;;;;;3.07;1.80;;;;;;;14.71;96.62;100333.09;5016085;57;1138848;-74
2023/07/21 03:46:23;;;;;;;3.70;1.90;;;;;;;14.63;96.57;100337.00;5061484;57;1138587;-71
2023/07/21 03:51:45;;;;;;;5.00;2.17;;;;;;;14.51;96.82;100338.20;5039240;57;1139044;-71
2023/07/21 03:56:52;;;;;;;1.90;1.80;;;;;;;14.41;97.56;100346.22;5041876;57;1138812;-68
2023/07/21 04:01:58;;;;;;;7.50;1.80;;;;;;;14.26;97.88;100350.81;5070442;56;1138829;-69
2023/07/21 04:07:10;;;;;;;2.97;2.07;;;;;;;14.07;98.72;100353.05;5054072;56;1138711;-72
2023/07/21 04:12:11;;;;;;;2.03;1.90;;;;;;;13.98;99.81;100357.91;5053126;57;1138658;-72
2023/07/21 04:17:17;;;;;;;5.47;2.00;;;;;;;13.91;99.74;100352.81;5074319;57;1138724;-69
2023/07/21 04:22:23;;;;;;;5.63;2.37;;;;;;;13.88;99.87;100361.11;5018841;57;1138690;-72
2023/07/21 04:27:35;;;;;;;3.50;2.00;;;;;;;13.91;100.00;100352.33;4972811;57;1138799;-74
2023/07/21 04:32:39;;;;;;;1.75;1.52;;;;;;;14.03;100.00;100355.18;5038794;57;1140761;-72
2023/07/21 04:37:43;;;;;;;5.87;1.63;;;;;;;14.14;100.00;100355.48;5074151;57;1140866;-72
2023/07/21 04:42:50;;;;;;;3.33;1.60;;;;;;;14.25;100.00;100357.11;4972377;57;1140918;-68
2023/07/21 04:47:57;;;;;;;2.20;1.92;;;;;;;14.31;100.00;100352.55;4972792;57;1141039;-73
2023/07/21 04:53:04;;;;;;;1.70;1.60;;;;;;;14.37;100.00;100350.61;5017709;56;1141034;-68
2023/07/21 04:58:10;;;;;;;2.70;1.97;;;;;;;14.37;100.00;100349.28;4972140;57;1140778;-69
2023/07/21 05:03:16;;;;;;;6.67;1.63;;;;;;;14.47;100.00;100347.95;5052749;56;1141013;-72
2023/07/21 05:08:24;;;;;;;6.03;2.30;;;;;;;14.49;100.00;100349.48;5045662;56;1141237;-70
2023/07/21 05:13:31;;;;;;;2.00;1.50;;;;;;;14.56;100.00;100351.05;4959504;58;1141059;-71
2023/07/21 05:18:41;;;;;;;3.08;1.27;;;;;;;14.63;100.00;100354.80;4885672;58;1141052;-76
2023/07/21 05:23:48;;;;;;;3.75;1.57;;;;;;;14.76;100.00;100348.62;5033883;56;1140886;-71
2023/07/21 05:28:55;;;;;;;2.12;1.52;;;;;;;14.88;100.00;100342.08;5059755;56;1140844;-71
2023/07/21 05:34:11;;;;;;;1.93;1.80;;;;;;;15.02;100.00;100346.05;4958852;57;1141021;-68
2023/07/21 05:39:17;;;;;;;2.83;1.47;;;;;;;15.14;100.00;100345.66;5003644;57;1140889;-75
2023/07/21 05:44:23;;;;;;;4.17;1.57;;;;;;;15.29;100.00;100337.12;5041699;57;1141017;-74
2023/07/21 05:49:29;;;;;;;6.10;1.87;;;;;;;15.47;100.00;100337.95;5041251;57;1141011;-73
2023/07/21 05:54:37;;;;;;;2.70;1.90;;;;;;;15.74;100.00;100343.17;5041562;57;1140842;-70
2023/07/21 05:59:45;;;;;;;2.87;1.77;;;;;;;15.95;100.00;100336.64;5058897;57;1140725;-74
2023/07/21 06:04:51;;;;;;;2.77;1.60;;;;;;;16.11;100.00;100337.57;5019261;56;1141064;-71
2023/07/21 06:10:08;;;;;;;1.87;1.40;;;;;;;16.24;100.00;100341.63;5052337;56;1140903;-71
2023/07/21 06:15:18;;;;;;;4.53;2.90;;;;;;;16.42;100.00;100340.55;5055500;56;1140939;-72
2023/07/21 06:20:26;;;;;;;4.27;2.07;;;;;;;16.76;100.00;100342.36;5049696;56;1140916;-69
2023/07/21 06:25:32;;;;;;;2.23;1.30;;;;;;;16.89;98.55;100345.39;4972838;56;1140647;-68
2023/07/21 06:30:40;;;;;;;5.30;1.40;;;;;;;17.07;99.18;100339.42;4970665;57;1138796;-72
2023/07/21 06:35:47;;;;;;;2.65;1.55;;;;;;;17.20;97.76;100340.27;4991914;57;1138990;-70
2023/07/21 06:40:58;;;;;;;4.58;2.05;;;;;;;17.40;97.74;100338.95;4961891;57;1138832;-72
2023/07/21 06:46:21;;;;;;;4.35;1.70;;;;;;;17.65;95.51;100330.42;5024936;57;1138813;-73
2023/07/21 06:51:32;;;;;;;4.64;1.44;;;;;;;17.72;93.80;100335.41;4970400;58;1138666;-71
2023/07/21 06:56:38;;;;;;;5.67;1.42;;;;;;;17.86;93.40;100326.72;4991336;58;1139028;-74
2023/07/21 07:01:44;;;;;;;8.03;1.77;;;;;;;18.06;93.52;100318.28;5031520;56;1138863;-68
2023/07/21 07:06:50;;;;;;;7.03;1.77;;;;;;;18.21;92.99;100321.91;5048966;57;1138724;-75
2023/07/21 07:11:56;;;;;;;8.30;1.60;;;;;;;18.35;91.19;100326.54;5061691;57;1138771;-74
2023/07/21 07:17:02;;;;;;;4.83;1.30;;;;;;;18.38;89.27;100323.52;5041184;57;1139001;-71
2023/07/21 07:22:09;;;;;;;5.40;1.80;;;;;;;18.53;89.58;100328.97;5027875;57;1138805;-69
2023/07/21 07:27:16;;;;;;;6.03;1.40;;;;;;;18.76;90.58;100324.55;5061391;56;1138698;-71
2023/07/21 07:32:22;;;;;;;3.52;1.95;;;;;;;18.96;88.73;100323.56;5046170;56;1138558;-74
2023/07/21 07:37:29;;;;;;;8.23;1.30;;;;;;;19.05;87.15;100325.19;5047388;56;1138619;-68
2023/07/21 07:42:36;;;;;;;3.22;1.15;;;;;;;19.20;85.65;100328.77;5048177;56;1138652;-73
2023/07/21 07:47:44;;;;;;;5.17;1.45;;;;;;;19.45;79.97;100329.89;5063734;57;1138725;-73
2023/07/21 07:52:49;;;;;;;3.37;0.80;;;;;;;19.40;76.65;100324.26;5038368;56;1138799;-71
2023/07/21 07:57:56;;;;;;;2.37;1.20;;;;;;;19.36;77.70;100328.30;5040657;56;1138932;-71
2023/07/21 08:03:02;;;;;;;1.70;0.93;;;;;;;19.38;75.42;100336.50;5098374;56;1138865;-70
2023/07/21 08:08:09;;;;;;;3.27;1.02;;;;;;;19.44;75.57;100328.22;5106747;56;1138652;-73
2023/07/21 08:13:15;;;;;;;0.72;0.70;;;;;;;19.62;76.06;100330.94;5106358;56;1138955;-70
2023/07/21 08:18:20;;;;;;;1.40;0.78;;;;;;;19.71;71.01;100337.59;5095032;56;1138805;-72
2023/07/21 08:23:26;;;;;;;2.42;1.05;;;;;;;19.80;69.09;100344.53;4966494;56;1138834;-74
2023/07/21 08:28:32;;;;;;;1.15;0.70;;;;;;;19.87;72.23;100340.08;5053788;56;1139024;-69
2023/07/21 08:33:38;;;;;;;3.03;0.87;;;;;;;20.05;69.20;100333.85;5041359;57;1138730;-73
2023/07/21 08:38:43;;;;;;;3.87;0.78;;;;;;;20.18;69.71;100345.28;5071987;56;1138841;-74
2023/07/21 08:43:49;;;;;;;4.60;1.15;;;;;;;20.35;69.21;100338.70;5049598;56;1138555;-72
2023/07/21 08:48:56;;;;;;;4.50;0.80;;;;;;;20.45;69.70;100331.75;5075435;56;1138819;-69
2023/07/21 08:54:01;;;;;;;2.30;1.30;;;;;;;20.75;66.23;100333.88;5089068;56;1138636;-72
2023/07/21 08:59:07;;;;;;;1.20;0.75;;;;;;;20.66;60.54;100325.91;5074449;56;1138764;-70
2023/07/21 09:04:22;;;;;;;5.55;1.00;;;;;;;20.63;61.18;100324.93;5072065;56;1138815;-71
2023/07/21 09:09:30;;;;;;;5.33;1.57;;;;;;;20.79;62.07;100313.62;5087982;56;1138732;-75
2023/07/21 09:14:47;;;;;;;9.68;1.07;;;;;;;20.97;61.70;100320.77;5048726;56;1139087;-69
2023/07/21 09:19:55;;;;;;;7.73;1.00;;;;;;;21.04;61.95;100318.48;5051326;56;1138631;-73
2023/07/21 09:25:01;;;;;;;4.28;0.95;;;;;;;21.12;62.30;100312.63;5052007;56;1139135;-70
2023/07/21 09:30:07;;;;;;;2.83;0.80;;;;;;;21.38;62.14;100311.58;5055157;56;1138782;-73
2023/07/21 09:35:13;;;;;;;1.75;0.62;;;;;;;21.50;57.86;100312.71;5056028;56;1138743;-72
2023/07/21 09:40:27;;;;;;;2.40;1.20;;;;;;;21.67;54.95;100309.22;5074858;56;1138893;-70
2023/07/21 09:45:34;;;;;;;1.80;1.05;;;;;;;21.80;56.39;100302.58;4993386;57;1139002;-74
2023/07/21 09:50:40;;;;;;;1.82;0.53;;;;;;;21.88;56.14;100299.72;5043044;57;1138722;-70
2023/07/21 09:55:46;;;;;;;0.88;0.70;;;;;;;21.99;54.98;100285.75;5055182;57;1138907;-72
2023/07/21 10:00:57;;;;;;;1.10;0.93;;;;;;;22.05;52.51;100286.28;5074938;57;1138731;-71
2023/07/21 10:06:03;;;;;;;2.27;0.82;;;;;;;22.19;54.82;100280.44;5055311;57;1138577;-72
2023/07/21 10:11:10;;;;;;;2.12;0.75;;;;;;;22.41;50.70;100282.00;5054771;57;1138857;-72
2023/07/21 10:16:17;;;;;;;2.30;0.80;;;;;;;22.62;51.71;100273.45;5074562;57;1139140;-74
2023/07/21 10:21:22;;;;;;;1.20;0.70;;;;;;;22.80;53.76;100260.25;4996252;56;1138720;-72
2023/07/21 10:26:30;;;;;;;1.35;0.90;;;;;;;23.20;51.22;100265.19;4973061;57;1138815;-71
2023/07/21 10:31:38;;;;;;;0.98;0.75;;;;;;;23.29;48.17;100262.59;4973461;57;1138890;-73
2023/07/21 10:36:57;;;;;;;5.20;0.90;;;;;;;23.37;50.44;100262.39;4992209;57;1138636;-73
2023/07/21 10:42:05;;;;;;;2.80;1.17;;;;;;;23.59;50.93;100258.13;5041903;57;1138940;-74
2023/07/21 10:47:20;;;;;;;1.80;1.00;;;;;;;23.62;48.14;100259.90;4990088;57;1138757;-74
2023/07/21 10:52:26;;;;;;;1.07;0.95;;;;;;;23.60;49.06;100254.39;5004328;57;1138826;-71
2023/07/21 10:57:38;;;;;;;1.75;1.00;;;;;;;23.78;48.80;100245.12;5053658;56;1185510;-70
2023/07/21 11:02:43;;;;;;;;;;;;;;;23.92;47.86;100238.63;5057474;57;1138952;-71
2023/07/21 11:07:51;;;;;;;1.07;0.57;;;;;;;24.01;46.45;100233.30;5073315;57;976071;-70
2023/07/21 11:12:59;;;;;;;1.20;0.60;;;;;;;24.15;46.81;100230.84;5074603;57;1136676;-75
2023/07/21 11:18:05;;;;;;;1.23;0.70;;;;;;;24.17;45.22;100236.87;5033856;57;1138912;-72
2023/07/21 11:23:11;;;;;;;1.07;0.70;;;;;;;23.99;45.39;100234.55;5020846;57;1138941;-73
2023/07/21 11:28:17;;;;;;;0.50;0.42;;;;;;;23.88;46.08;100227.94;4995640;57;1138547;-72
2023/07/21 11:33:23;;;;;;;0.60;0.60;;;;;;;23.87;45.24;100220.88;4973001;57;1138726;-76
2023/07/21 11:38:29;;;;;;;3.37;0.93;;;;;;;23.69;45.91;100221.55;4983500;57;1138930;-70
2023/07/21 11:43:51;;;;;;;8.88;0.90;;;;;;;23.60;47.98;100224.69;5025670;57;1139002;-71
2023/07/21 11:48:57;;;;;;;1.60;0.70;;;;;;;23.47;46.70;100222.82;5024829;57;1138806;-74
2023/07/21 11:54:03;;;;;;;1.02;0.78;;;;;;;23.42;46.10;100218.56;5010809;57;1138882;-71
2023/07/21 11:59:08;;;;;;;0.72;0.72;;;;;;;23.35;47.48;100207.79;5006912;57;1138743;-73
2023/07/21 12:04:15;;;;;;;0.80;0.70;;;;;;;23.55;45.96;100202.89;5054471;56;1138721;-69
2023/07/21 12:09:20;;;;;;;0.62;0.62;;;;;;;23.68;46.58;100200.98;4969965;57;1138889;-73
2023/07/21 12:14:26;;;;;;;0.90;0.60;;;;;;;23.83;46.40;100191.30;4979986;57;1139062;-71
2023/07/21 12:19:32;;;;;;;0.75;0.75;;;;;;;23.93;46.27;100195.72;5030540;57;1139149;-73
2023/07/21 12:24:38;;;;;;;0.68;0.60;;;;;;;23.87;47.25;100191.69;5053948;57;1138752;-69
2023/07/21 12:29:43;;;;;;;0.70;0.70;;;;;;;23.91;46.80;100187.52;5020073;57;1138940;-74
2023/07/21 12:34:49;;;;;;;4.65;0.80;;;;;;;23.99;46.98;100178.64;5068479;56;1138873;-74
2023/07/21 12:39:55;;;;;;;1.57;0.60;;;;;;;24.06;46.73;100179.45;5049812;56;1138972;-72
2023/07/21 12:45:01;;;;;;;1.95;0.70;;;;;;;24.17;45.33;100173.88;5030825;56;1138666;-68
2023/07/21 12:50:07;;;;;;;0.87;0.60;;;;;;;24.27;45.71;100178.88;5063906;56;1138571;-71
2023/07/21 12:55:13;;;;;;;2.90;1.02;;;;;;;24.45;45.01;100173.55;5050163;56;1138712;-72
2023/07/21 13:00:18;;;;;;;1.80;0.90;;;;;;;24.53;43.22;100163.83;4998552;56;1138772;-72
2023/07/21 13:05:24;;;;;;;1.00;0.60;;;;;;;24.49;44.01;100163.44;5043424;57;1139032;-72
2023/07/21 13:10:30;;;;;;;1.55;0.82;;;;;;;24.45;45.30;100164.08;5054078;57;1138682;-72
2023/07/21 13:15:36;;;;;;;6.92;1.00;;;;;;;24.35;45.64;100154.28;5054501;57;1138799;-75
2023/07/21 13:20:41;;;;;;;1.90;0.75;;;;;;;24.36;47.02;100152.71;5018880;57;1138911;-72
2023/07/21 13:25:47;;;;;;;1.65;0.60;;;;;;;24.36;46.08;100156.77;5039632;56;1138643;-72
2023/07/21 13:30:53;;;;;;;2.05;1.12;;;;;;;24.34;44.56;100154.80;5049779;56;1138830;-72
2023/07/21 13:35:58;;;;;;;0.60;0.60;;;;;;;24.31;44.26;100154.40;5096543;56;1138996;-74
2023/07/21 13:41:04;;;;;;;2.10;0.97;;;;;;;24.34;44.19;100158.86;5073428;56;1138688;-71
2023/07/21 13:46:10;;;;;;;1.12;0.80;;;;;;;24.34;45.27;100166.14;4992711;57;1138835;-70
2023/07/21 13:51:15;;;;;;;1.22;0.70;;;;;;;24.30;45.92;100158.98;5078368;56;1138712;-71
2023/07/21 13:56:21;;;;;;;2.92;0.75;;;;;;;24.32;45.82;100154.70;5063878;56;1138463;-72
2023/07/21 14:01:27;;;;;;;1.35;0.78;;;;;;;24.32;45.82;100154.70;4997565;57;1138669;-72
2023/07/21 14:06:32;;;;;;;0.72;0.72;;;;;;;24.35;44.70;100149.70;5045368;57;1138744;-75
2023/07/21 14:11:39;;;;;;;1.42;0.90;;;;;;;24.41;45.22;100148.02;5019810;57;1139005;-74
2023/07/21 14:16:45;;;;;;;1.07;0.70;;;;;;;24.44;44.66;100142.97;5029614;57;1138827;-71
2023/07/21 14:21:51;;;;;;;1.57;1.00;;;;;;;24.42;45.18;100140.21;4976764;57;1139052;-76
2023/07/21 14:26:56;;;;;;;1.70;0.70;;;;;;;24.36;45.02;100147.30;5016031;56;1138789;-73
2023/07/21 14:32:02;;;;;;;3.62;0.72;;;;;;;24.19;45.55;100135.31;5005047;57;1138829;-74
2023/07/21 14:37:08;;;;;;;1.55;0.85;;;;;;;24.15;45.97;100134.09;5005062;56;1138683;-72
2023/07/21 14:42:14;;;;;;;2.72;0.68;;;;;;;24.07;44.99;100126.25;5018157;57;1138666;-73
2023/07/21 14:47:19;;;;;;;0.85;0.80;;;;;;;24.14;46.78;100125.15;5061584;57;1138617;-73
2023/07/21 14:52:26;;;;;;;3.92;1.00;;;;;;;24.20;45.22;100125.64;5041571;57;1138957;-73
2023/07/21 14:57:32;;;;;;;3.67;0.70;;;;;;;24.21;45.08;100119.72;5041697;57;1138854;-72
2023/07/21 15:02:38;;;;;;;0.80;0.80;;;;;;;24.07;44.39;100111.39;5040669;56;1139184;-71
2023/07/21 15:07:48;;;;;;;1.95;0.95;;;;;;;23.90;44.86;100104.83;5010302;57;1138645;-74
2023/07/21 15:12:53;;;;;;;3.22;0.65;;;;;;;23.87;45.96;100095.80;4960032;57;1139141;-75
2023/07/21 15:17:59;;;;;;;2.63;1.03;;;;;;;23.82;45.96;100089.72;4957564;56;1138782;-73
2023/07/21 15:23:05;;;;;;;1.15;0.93;;;;;;;23.89;45.72;100086.44;5071414;56;1138694;-71
2023/07/21 15:28:11;;;;;;;2.35;1.12;;;;;;;24.02;45.65;100078.25;5047356;56;1138775;-70
2023/07/21 15:33:16;;;;;;;1.77;0.80;;;;;;;24.14;45.82;100079.73;5065800;56;1138946;-73
2023/07/21 15:38:22;;;;;;;0.75;0.62;;;;;;;24.13;44.50;100065.42;5061076;57;1138905;-72
2023/07/21 15:43:28;;;;;;;5.70;4.20;;;;;;;24.18;44.50;100057.99;5031623;57;1138674;-71
2023/07/21 15:48:35;;;;;;;7.70;3.44;;;;;;;24.23;44.44;100060.91;5008377;57;1138578;-71
2023/07/21 15:53:40;;;;;;;3.47;2.87;;;;;;;24.30;44.58;100054.92;4968719;57;1138904;-75
2023/07/21 15:58:46;;;;;;;1.37;1.10;;;;;;;24.38;44.47;100052.48;5057235;56;1138620;-72
2023/07/21 16:03:53;;;;;;;0.68;0.60;;;;;;;24.45;45.13;100048.66;5041782;57;1138939;-72
2023/07/21 16:08:59;;;;;;;1.47;0.80;;;;;;;24.42;44.37;100039.66;5000861;57;1138730;-72
2023/07/21 16:14:05;;;;;;;0.75;0.75;;;;;;;24.37;43.26;100033.25;4979659;58;1138964;-72
2023/07/21 16:19:10;;;;;;;2.85;1.12;;;;;;;24.35;44.45;100032.12;4959746;57;1138733;-74
2023/07/21 16:24:16;;;;;;;5.47;1.10;;;;;;;24.35;45.15;100029.94;5022788;57;1138739;-75
2023/07/21 16:29:21;;;;;;;3.90;1.42;;;;;;;24.33;46.04;100022.05;5074262;57;1138965;-71
2023/07/21 16:34:38;;;;;;;2.52;1.50;;;;;;;24.32;46.46;100027.67;5053981;57;1139022;-73
2023/07/21 16:39:47;;;;;;;1.15;1.00;;;;;;;24.31;45.83;100021.44;5019882;57;1139011;-73
2023/07/21 16:44:51;;;;;;;2.62;1.77;;;;;;;24.26;45.39;100022.64;5000909;57;1178734;-71
2023/07/21 16:49:57;;;;;;;3.28;0.98;;;;;;;24.19;45.40;100022.65;5050699;57;1138572;-73
2023/07/21 16:55:02;;;;;;;9.20;2.30;;;;;;;24.14;45.91;100023.81;5034236;56;1138846;-75
2023/07/21 17:00:13;;;;;;;1.47;1.10;;;;;;;24.11;45.17;100032.39;4984837;57;1138838;-73
2023/07/21 17:05:19;;;;;;;1.02;0.90;;;;;;;24.08;45.42;100029.29;5020203;57;1138995;-75
2023/07/21 17:10:24;;;;;;;1.63;0.93;;;;;;;24.06;45.29;100026.80;4984316;57;1138642;-73
2023/07/21 17:15:30;;;;;;;2.05;0.90;;;;;;;24.08;46.36;100022.53;4987235;57;1138715;-73
2023/07/21 17:20:35;;;;;;;5.75;1.35;;;;;;;24.02;47.32;100024.23;5026971;56;1138772;-73
2023/07/21 17:25:42;;;;;;;5.50;2.42;;;;;;;23.92;47.99;100021.19;4998782;56;1138806;-72
2023/07/21 17:30:47;;;;;;;6.45;0.98;;;;;;;23.85;49.08;100023.92;4970630;57;1138851;-75
2023/07/21 17:35:53;;;;;;;4.60;1.32;;;;;;;23.80;49.79;100034.56;4978617;57;1138988;-74
2023/07/21 17:41:04;;;;;;;3.85;0.85;;;;;;;23.74;50.39;100029.19;5018214;57;1139057;-71
2023/07/21 17:46:09;;;;;;;6.65;1.40;;;;;;;23.65;50.92;100027.28;4971990;57;1139023;-73
2023/07/21 17:51:15;;;;;;;8.58;1.65;;;;;;;23.56;51.40;100021.80;5020289;56;1139053;-74
2023/07/21 17:56:21;;;;;;;9.28;2.77;;;;;;;23.57;51.78;100016.71;5048564;57;1138716;-74
2023/07/21 18:01:27;;;;;;;17.87;8.18;;;;;;;23.54;52.53;100017.66;5033440;57;1138749;-74
2023/07/21 18:06:32;;;;;;;19.77;8.40;;;;;;;23.28;53.20;100017.23;4982443;57;1140850;-73
2023/07/21 18:11:38;;;;;;;30.80;11.48;;;;;;;23.19;54.14;100013.95;5048830;56;1140760;-76
2023/07/21 18:16:44;;;;;;;38.10;16.10;;;;;;;23.23;55.08;100000.32;5017193;57;1142916;-69
2023/07/21 18:21:49;;;;;;;36.65;13.20;;;;;;;23.23;55.63;100006.23;5026980;56;1143059;-69
2023/07/21 18:26:57;;;;;;;16.90;8.30;;;;;;;23.26;56.33;100003.13;5003051;57;1143194;-75
2023/07/21 18:32:04;;;;;;;22.10;6.72;;;;;;;23.25;57.76;100004.98;5036339;57;1140947;-73
2023/07/21 18:37:10;;;;;;;9.83;6.15;;;;;;;23.14;58.99;100003.80;5030462;56;1140835;-73
2023/07/21 18:42:16;;;;;;;8.40;4.53;;;;;;;22.94;58.84;99996.27;4955117;58;1138878;-71
2023/07/21 18:47:24;;;;;;;7.90;4.05;;;;;;;22.83;59.44;99996.94;4998862;57;1137023;-73
2023/07/21 18:52:30;;;;;;;24.15;13.25;;;;;;;22.78;60.07;99987.30;5019877;56;1136693;-72
2023/07/21 18:57:36;;;;;;;26.68;12.93;;;;;;;22.62;60.52;99994.45;5015460;56;1141031;-72
2023/07/21 19:02:42;;;;;;;22.46;9.82;;;;;;;22.38;61.48;99990.03;5030259;57;1140986;-72
2023/07/21 19:07:48;;;;;;;18.73;9.50;;;;;;;22.37;62.39;99990.23;5045535;57;1138901;-71
2023/07/21 19:12:54;;;;;;;10.88;6.62;;;;;;;22.41;62.67;100000.92;5026240;57;1138979;-68
2023/07/21 19:18:00;;;;;;;18.48;4.72;;;;;;;22.33;62.35;100007.33;4989252;57;1141086;-73
2023/07/21 19:23:05;;;;;;;12.27;4.47;;;;;;;22.26;60.98;100024.55;5034872;57;1141201;-76
2023/07/21 19:28:11;;;;;;;7.37;3.10;;;;;;;22.11;59.94;100034.17;4981359;57;1141013;-71
2023/07/21 19:33:17;;;;;;;9.78;1.60;;;;;;;21.83;59.70;100054.50;5001364;56;1139109;-72
2023/07/21 19:38:30;;;;;;;4.17;1.07;;;;;;;21.54;58.67;100062.89;5011846;57;1138856;-76
2023/07/21 19:43:30;;;;;;;1.20;1.10;;;;;;;21.28;59.03;100060.38;4992564;56;1138807;-72
2023/07/21 19:48:35;;;;;;;1.27;0.95;;;;;;;21.14;59.53;100058.62;4969717;57;1138775;-71
2023/07/21 19:53:43;;;;;;;7.06;1.88;;;;;;;20.93;58.75;100059.52;4996111;57;1139093;-70
2023/07/21 19:58:49;;;;;;;3.52;2.50;;;;;;;20.82;59.46;100053.86;5029850;57;1138707;-73
2023/07/21 20:03:54;;;;;;;7.92;3.22;;;;;;;20.61;59.75;100056.95;5072417;56;1138816;-72
2023/07/21 20:09:00;;;;;;;13.08;2.10;;;;;;;20.57;60.31;100069.10;5019755;56;1139731;-73
2023/07/21 20:14:05;;;;;;;8.03;2.10;;;;;;;20.45;59.81;100075.20;5061164;56;1140921;-73
2023/07/21 20:19:11;;;;;;;3.80;2.72;;;;;;;20.41;60.26;100076.60;5002830;56;1139113;-70
2023/07/21 20:24:17;;;;;;;5.58;1.32;;;;;;;20.45;60.46;100079.23;5064633;56;1138861;-74
2023/07/21 20:29:22;;;;;;;5.25;1.25;;;;;;;20.45;60.86;100084.09;5138188;56;1138732;-74
2023/07/21 20:34:28;;;;;;;2.85;1.35;;;;;;;20.38;61.34;100101.16;5044373;57;1138975;-72
2023/07/21 20:39:35;;;;;;;1.00;1.00;;;;;;;20.28;61.92;100104.98;4986846;57;1138725;-72
2023/07/21 20:44:40;;;;;;;1.72;1.20;;;;;;;20.24;62.45;100105.03;5002262;56;1138977;-71
2023/07/21 20:49:46;;;;;;;1.37;0.93;;;;;;;20.25;62.82;100108.55;4989854;57;1138891;-72
2023/07/21 20:54:52;;;;;;;1.75;0.98;;;;;;;20.15;63.02;100122.30;5022997;57;1139115;-74
2023/07/21 20:59:57;;;;;;;3.72;1.57;;;;;;;19.98;63.38;100136.47;5008325;57;1138950;-74
2023/07/21 21:05:03;;;;;;;1.12;1.12;;;;;;;19.54;64.17;100145.09;5040003;57;1138737;-72
2023/07/21 21:10:10;;;;;;;2.37;1.77;;;;;;;19.40;65.64;100148.05;5024110;57;1138862;-69
2023/07/21 21:15:16;;;;;;;1.43;1.33;;;;;;;19.36;66.19;100148.63;5009963;56;1138825;-73
2023/07/21 21:20:21;;;;;;;5.47;1.30;;;;;;;19.42;67.00;100143.34;4990809;57;1138784;-73
2023/07/21 21:25:27;;;;;;;3.67;1.15;;;;;;;19.30;66.90;100143.48;4971027;56;1138817;-75
2023/07/21 21:30:32;;;;;;;3.75;1.90;;;;;;;19.35;67.37;100146.45;4970984;57;1139015;-72
2023/07/21 21:35:38;;;;;;;2.75;2.30;;;;;;;19.30;67.27;100145.66;4972505;57;1138763;-72
2023/07/21 21:40:44;;;;;;;2.25;1.45;;;;;;;19.31;67.82;100141.95;4992719;57;1138827;-73
2023/07/21 21:45:49;;;;;;;1.80;1.70;;;;;;;19.29;67.88;100144.49;4973344;57;1138793;-74
2023/07/21 21:50:55;;;;;;;3.22;1.32;;;;;;;19.31;68.56;100154.53;4972842;57;1138873;-68
2023/07/21 21:56:01;;;;;;;1.95;1.22;;;;;;;19.26;68.56;100151.56;4993006;57;1138956;-70
2023/07/21 22:01:07;;;;;;;1.85;1.27;;;;;;;19.26;68.58;100163.63;4973294;57;1138729;-72
2023/07/21 22:06:13;;;;;;;1.60;1.23;;;;;;;19.26;69.01;100163.63;4948312;57;1139059;-72
2023/07/21 22:11:19;;;;;;;1.10;1.02;;;;;;;19.13;68.80;100163.43;4916642;57;1138805;-72
2023/07/21 22:16:24;;;;;;;1.32;1.22;;;;;;;19.01;70.07;100179.64;4942509;57;1138868;-73
2023/07/21 22:21:30;;;;;;;1.80;1.70;;;;;;;18.69;71.22;100196.82;4936630;56;1139019;-74
2023/07/21 22:26:36;;;;;;;1.82;1.55;;;;;;;18.48;72.74;100197.46;4962112;57;1138805;-73
2023/07/21 22:31:41;;;;;;;2.33;1.55;;;;;;;18.25;73.93;100192.06;4936931;57;1138835;-70
2023/07/21 22:36:47;;;;;;;1.55;1.45;;;;;;;18.17;75.52;100193.47;4961338;57;1138949;-75
2023/07/21 22:41:53;;;;;;;1.20;1.15;;;;;;;18.24;77.89;100181.86;5025812;57;1138828;-71
2023/07/21 22:47:02;;;;;;;1.05;1.00;;;;;;;18.28;78.83;100177.00;4997232;57;1138934;-72
2023/07/21 22:52:08;;;;;;;1.17;1.17;;;;;;;18.29;79.18;100174.65;4985001;57;1138874;-72
2023/07/21 22:57:13;;;;;;;1.47;1.40;;;;;;;18.21;78.86;100180.88;5025002;57;1139076;-71
2023/07/21 23:02:19;;;;;;;1.32;1.17;;;;;;;18.25;79.25;100183.53;5004137;57;1138708;-72
2023/07/21 23:07:25;;;;;;;2.22;1.47;;;;;;;18.34;79.73;100190.99;4999489;57;1138867;-72
2023/07/21 23:12:30;;;;;;;4.47;1.60;;;;;;;18.32;80.14;100189.03;5019146;57;1138615;-71